PILOTS ONLINE: 254    ATC ONLINE: 22

MDPC

Punta Cana International Airport

Location

IATA PUJ
City Punta Cana
Country  Dominican Republic
Latitude 18° 34' 2" N
Longitude 68° 21' 48" W
Elevation 47 ft
Type Large Airport

Map

Weather

METAR
2014/10/23 10:00
MDPC 231000Z 00000KT 9999 FEW016 23/22 Q1012 METAR MDSD 231000Z 05007KT 9999 FEW018 23/22 Q1011 NOSIG
TAF
2014/10/23 06:23
TAF MDPC 230400Z 2306/2406 00000KT 9999 FEW018 
      BECMG 2313/0515 16006KT

Runways

09/27 10171 ft / 157 ft

Outbound flights

Callsign Flying to Pilot ATD/STD ETA Aircraft

Inbound flights

Callsign Flying from Pilot ATD ETA Aircraft